createdAt,value
2022-07-29T00:02:16.802Z,51.99
2022-07-29T00:04:43.613Z,51.96
2022-07-29T00:07:10.485Z,51.96
2022-07-29T00:09:41.944Z,52.65
2022-07-29T00:12:25.612Z,52.33
2022-07-29T00:14:55.489Z,52.23
2022-07-29T00:17:22.603Z,52.51
2022-07-29T00:19:49.308Z,52.69
2022-07-29T00:22:16.504Z,52.70
2022-07-29T00:24:43.187Z,52.77
2022-07-29T00:27:09.936Z,53.02
2022-07-29T00:29:36.967Z,53.56
2022-07-29T00:32:04.335Z,53.52
2022-07-29T00:34:50.869Z,53.24
2022-07-29T00:37:17.781Z,53.32
2022-07-29T00:39:44.519Z,53.71
2022-07-29T00:42:11.819Z,53.45
2022-07-29T00:44:42.684Z,53.60
2022-07-29T00:47:11.861Z,54.13
2022-07-29T00:49:40.306Z,54.11
2022-07-29T00:52:07.515Z,54.53
2022-07-29T00:54:35.166Z,54.08
2022-07-29T00:57:04.394Z,54.27
2022-07-29T00:59:34.779Z,53.94
2022-07-29T01:02:04.137Z,53.91
2022-07-29T01:04:32.280Z,54.41
2022-07-29T01:07:00.383Z,54.29
2022-07-29T01:09:42.086Z,54.42
2022-07-29T01:12:20.274Z,54.69
2022-07-29T01:14:48.867Z,54.35
2022-07-29T01:17:27.241Z,54.72
2022-07-29T01:20:07.345Z,54.61
2022-07-29T01:23:01.225Z,55.41
2022-07-29T01:25:35.607Z,54.76
2022-07-29T01:28:24.098Z,54.82
2022-07-29T01:30:54.984Z,54.82
2022-07-29T01:33:46.730Z,55.21
2022-07-29T01:36:19.315Z,55.54
2022-07-29T01:38:58.090Z,55.64
2022-07-29T01:41:28.030Z,55.44
2022-07-29T01:44:04.049Z,55.48
2022-07-29T01:46:37.185Z,55.53
2022-07-29T01:49:12.813Z,55.69
2022-07-29T01:51:47.400Z,55.62
2022-07-29T01:54:40.030Z,56.44
2022-07-29T01:57:09.372Z,55.95
2022-07-29T01:59:38.321Z,55.74
2022-07-29T02:02:09.485Z,55.61
2022-07-29T02:04:37.859Z,55.70
2022-07-29T02:07:08.156Z,56.40
2022-07-29T02:09:37.476Z,55.69
2022-07-29T02:12:05.679Z,55.89
2022-07-29T02:14:37.198Z,55.70
2022-07-29T02:17:04.371Z,55.61
2022-07-29T02:19:34.158Z,55.83
2022-07-29T02:22:02.292Z,55.90
2022-07-29T02:24:30.929Z,56.25
2022-07-29T02:27:00.219Z,56.41
2022-07-29T02:29:29.583Z,56.26
2022-07-29T02:31:59.339Z,56.71
2022-07-29T02:34:26.801Z,56.62
2022-07-29T02:36:55.319Z,56.81
2022-07-29T02:39:23.759Z,56.78
2022-07-29T02:41:58.755Z,56.95
2022-07-29T02:44:31.273Z,57.07
2022-07-29T02:47:22.128Z,56.82
2022-07-29T02:49:56.865Z,57.16
2022-07-29T02:52:44.735Z,57.61
2022-07-29T02:55:23.992Z,57.21
2022-07-29T02:58:14.616Z,57.66
2022-07-29T03:00:42.265Z,57.23
2022-07-29T03:03:13.416Z,57.65
2022-07-29T03:05:41.490Z,57.32
2022-07-29T03:08:11.538Z,57.39
2022-07-29T03:10:46.545Z,57.46
2022-07-29T03:13:14.655Z,57.59
2022-07-29T03:15:45.234Z,57.79
2022-07-29T03:18:12.218Z,57.49
2022-07-29T03:20:40.062Z,57.44
2022-07-29T03:23:06.739Z,57.58
2022-07-29T03:25:33.474Z,57.79
2022-07-29T03:28:00.468Z,58.05
2022-07-29T03:30:27.140Z,58.05
2022-07-29T03:32:54.572Z,57.76
2022-07-29T03:35:25.853Z,57.99
2022-07-29T03:37:52.698Z,58.22
2022-07-29T03:40:27.160Z,58.02
2022-07-29T03:42:55.165Z,58.35
2022-07-29T03:45:24.131Z,58.17
2022-07-29T03:48:00.317Z,58.29
2022-07-29T03:50:29.824Z,58.33
2022-07-29T03:52:56.819Z,58.84
2022-07-29T03:55:24.644Z,58.71
2022-07-29T03:57:52.084Z,58.83
2022-07-29T04:00:19.617Z,59.04
2022-07-29T04:02:49.464Z,59.04
2022-07-29T04:05:17.003Z,58.95
2022-07-29T04:07:50.073Z,59.03
2022-07-29T04:10:30.679Z,59.43
2022-07-29T04:13:00.548Z,59.14
2022-07-29T04:15:31.571Z,59.43
2022-07-29T04:17:59.545Z,59.78
2022-07-29T04:20:26.905Z,59.61
2022-07-29T04:22:53.580Z,59.90
2022-07-29T04:25:20.375Z,59.69
2022-07-29T04:28:02.010Z,59.98
2022-07-29T04:30:28.986Z,60.19
2022-07-29T04:32:55.586Z,60.27
2022-07-29T04:35:22.464Z,60.03
2022-07-29T04:37:49.150Z,60.53
2022-07-29T04:40:16.499Z,60.30
2022-07-29T04:42:47.227Z,60.29
2022-07-29T04:45:15.249Z,60.18
2022-07-29T04:47:43.211Z,60.41
2022-07-29T04:50:10.887Z,60.14
2022-07-29T04:52:37.731Z,60.34
2022-07-29T04:55:06.592Z,60.41
2022-07-29T04:57:33.558Z,60.28
2022-07-29T05:00:00.310Z,60.53
2022-07-29T05:02:27.168Z,60.63
2022-07-29T05:04:53.983Z,60.46
2022-07-29T05:07:20.867Z,60.61
2022-07-29T05:09:48.237Z,60.95
2022-07-29T05:12:14.998Z,60.72
2022-07-29T05:14:41.738Z,61.19
2022-07-29T05:17:08.486Z,61.24
2022-07-29T05:19:39.862Z,60.98
2022-07-29T05:22:07.098Z,61.40
2022-07-29T05:24:33.787Z,61.38
2022-07-29T05:27:00.639Z,61.60
2022-07-29T05:29:42.726Z,61.61
2022-07-29T05:32:11.915Z,61.62
2022-07-29T05:34:38.622Z,61.56
2022-07-29T05:37:18.874Z,61.78
2022-07-29T05:39:48.672Z,61.84
2022-07-29T05:42:17.477Z,61.98
2022-07-29T05:44:44.348Z,61.96
2022-07-29T05:47:10.982Z,61.85
2022-07-29T05:49:37.683Z,62.08
2022-07-29T05:52:04.731Z,61.96
2022-07-29T05:54:31.707Z,61.90
2022-07-29T05:56:58.315Z,61.94
2022-07-29T05:59:30.090Z,62.03
2022-07-29T06:01:58.324Z,61.64
2022-07-29T06:04:25.451Z,61.95
2022-07-29T06:06:52.196Z,62.03
2022-07-29T06:09:19.347Z,61.90
2022-07-29T06:11:46.127Z,61.48
2022-07-29T06:14:12.915Z,61.87
2022-07-29T06:16:39.906Z,61.87
2022-07-29T06:19:06.711Z,61.73
2022-07-29T06:21:33.486Z,61.76
2022-07-29T06:24:00.538Z,61.76
2022-07-29T06:26:30.961Z,61.66
2022-07-29T06:28:58.177Z,61.91
2022-07-29T06:31:25.196Z,61.98
2022-07-29T06:33:52.011Z,61.61
2022-07-29T06:36:21.409Z,61.82
2022-07-29T06:38:50.466Z,61.65
2022-07-29T06:41:19.163Z,62.11
2022-07-29T06:43:51.891Z,61.96
2022-07-29T06:46:22.452Z,61.72
2022-07-29T06:48:49.851Z,61.60
2022-07-29T06:51:22.205Z,61.93
2022-07-29T06:54:01.563Z,61.68
2022-07-29T06:56:40.310Z,61.52
2022-07-29T06:59:11.810Z,61.98
2022-07-29T07:01:40.693Z,61.85
2022-07-29T07:04:09.568Z,61.86
2022-07-29T07:06:36.667Z,61.73
2022-07-29T07:09:03.621Z,62.05
2022-07-29T07:11:30.393Z,61.89
2022-07-29T07:14:02.586Z,62.30
2022-07-29T07:16:30.169Z,62.12
2022-07-29T07:18:56.913Z,61.87
2022-07-29T07:21:23.870Z,61.96
2022-07-29T07:23:50.579Z,62.26
2022-07-29T07:26:17.246Z,61.69
2022-07-29T07:28:44.229Z,61.62
2022-07-29T07:31:11.538Z,61.38
2022-07-29T07:33:38.384Z,61.41
2022-07-29T07:36:05.521Z,61.46
2022-07-29T07:38:32.100Z,61.29
2022-07-29T07:40:59.778Z,61.49
2022-07-29T07:43:26.648Z,61.12
2022-07-29T07:45:53.861Z,61.12
2022-07-29T07:48:20.609Z,61.30
2022-07-29T07:50:47.743Z,60.87
2022-07-29T07:53:14.593Z,60.51
2022-07-29T07:58:30.402Z,59.81
2022-07-29T08:00:57.071Z,59.16
2022-07-29T08:03:23.808Z,58.67
2022-07-29T08:05:52.842Z,58.53
2022-07-29T08:08:19.694Z,58.58
2022-07-29T08:10:57.155Z,58.20
2022-07-29T08:13:29.183Z,58.05
2022-07-29T08:16:00.773Z,57.78
2022-07-29T08:18:31.873Z,57.23
2022-07-29T08:20:59.636Z,57.01
2022-07-29T08:23:31.576Z,56.89
2022-07-29T08:26:01.460Z,56.45
2022-07-29T08:28:28.022Z,55.78
2022-07-29T08:30:54.745Z,55.73
2022-07-29T08:33:21.687Z,55.18
2022-07-29T08:35:48.379Z,54.87
2022-07-29T08:38:15.135Z,54.88
2022-07-29T08:40:41.915Z,54.90
2022-07-29T08:43:10.054Z,54.97
2022-07-29T08:45:48.554Z,54.25
2022-07-29T08:48:18.220Z,54.17
2022-07-29T08:50:46.090Z,54.06
2022-07-29T08:53:15.078Z,53.62
2022-07-29T08:55:44.434Z,53.94
2022-07-29T08:58:12.071Z,53.65
2022-07-29T09:00:57.866Z,53.21
2022-07-29T09:03:28.417Z,53.19
2022-07-29T09:05:55.418Z,52.35
2022-07-29T09:08:22.973Z,51.87
2022-07-29T09:10:50.248Z,51.66
2022-07-29T09:13:16.867Z,51.53
2022-07-29T09:15:43.742Z,51.14
2022-07-29T09:18:28.930Z,51.33
2022-07-29T09:21:16.213Z,51.05
2022-07-29T09:24:01.075Z,49.95
2022-07-29T09:26:32.154Z,50.50
2022-07-29T09:29:00.139Z,50.03
2022-07-29T09:31:51.157Z,48.60
2022-07-29T09:34:29.429Z,49.37
2022-07-29T09:36:57.442Z,48.50
2022-07-29T09:39:32.852Z,49.48
2022-07-29T09:42:02.101Z,49.20
2022-07-29T09:44:42.339Z,49.23
2022-07-29T09:47:09.564Z,49.22
2022-07-29T09:49:50.836Z,49.29
2022-07-29T09:52:17.787Z,49.41
2022-07-29T09:54:45.010Z,48.98
2022-07-29T09:57:30.533Z,48.64
2022-07-29T10:00:01.025Z,48.50
2022-07-29T10:02:32.462Z,48.24
2022-07-29T10:05:00.522Z,48.41
2022-07-29T10:07:27.674Z,47.99
2022-07-29T10:09:56.754Z,47.88
2022-07-29T10:12:25.020Z,47.48
2022-07-29T10:14:52.066Z,46.70
2022-07-29T10:17:20.367Z,47.34
2022-07-29T10:19:47.165Z,46.55
2022-07-29T10:22:15.057Z,47.43
2022-07-29T10:24:42.349Z,47.07
2022-07-29T10:27:10.323Z,46.76
2022-07-29T10:29:37.318Z,46.54
2022-07-29T10:32:31.768Z,45.72
2022-07-29T10:35:08.351Z,45.72
2022-07-29T10:38:03.654Z,45.49
2022-07-29T10:41:09.994Z,45.43
2022-07-29T10:43:45.149Z,45.85
2022-07-29T10:46:15.539Z,45.65
2022-07-29T10:49:10.466Z,44.88
2022-07-29T10:52:02.250Z,45.08
2022-07-29T10:54:52.200Z,44.69
2022-07-29T10:57:25.626Z,45.04
2022-07-29T11:00:16.721Z,44.69
2022-07-29T11:02:45.926Z,44.69
2022-07-29T11:05:20.680Z,44.57
2022-07-29T11:08:27.893Z,43.75
2022-07-29T11:11:22.231Z,43.70
2022-07-29T11:13:52.369Z,44.27
2022-07-29T11:16:24.922Z,43.94
2022-07-29T11:19:26.308Z,43.31
2022-07-29T11:21:58.257Z,43.93
2022-07-29T11:24:30.270Z,43.61
2022-07-29T11:27:20.095Z,42.87
2022-07-29T11:29:56.354Z,43.14
2022-07-29T11:32:25.762Z,43.11
2022-07-29T11:35:36.920Z,42.55
2022-07-29T11:38:23.898Z,42.84
2022-07-29T11:41:26.054Z,42.59
2022-07-29T11:43:57.144Z,42.80
2022-07-29T11:46:50.186Z,42.22
2022-07-29T11:49:31.507Z,42.20
2022-07-29T11:52:02.365Z,42.44
2022-07-29T11:54:50.882Z,42.12
2022-07-29T11:57:22.780Z,42.31
2022-07-29T12:00:09.695Z,42.27
2022-07-29T12:02:40.779Z,41.48
2022-07-29T12:05:10.750Z,41.68
2022-07-29T12:07:39.299Z,41.42
2022-07-29T12:10:11.617Z,41.80
2022-07-29T12:12:53.736Z,41.65
2022-07-29T12:15:46.310Z,41.64
2022-07-29T12:18:18.600Z,41.57
2022-07-29T12:20:45.959Z,41.71
2022-07-29T12:23:13.340Z,41.27
2022-07-29T12:25:44.387Z,41.62
2022-07-29T12:28:26.879Z,41.12
2022-07-29T12:30:54.486Z,41.48
2022-07-29T12:33:21.196Z,40.94
2022-07-29T12:36:06.073Z,41.10
2022-07-29T12:38:37.610Z,40.73
2022-07-29T12:41:05.019Z,41.02
2022-07-29T12:43:32.304Z,40.98
2022-07-29T12:46:12.433Z,40.49
2022-07-29T12:48:41.192Z,40.08
2022-07-29T12:51:09.814Z,40.24
2022-07-29T12:53:37.975Z,40.28
2022-07-29T12:56:20.786Z,39.29
2022-07-29T12:58:52.829Z,40.22
2022-07-29T13:01:21.042Z,39.43
2022-07-29T13:03:57.318Z,39.56
2022-07-29T13:06:41.345Z,39.12
2022-07-29T13:09:20.113Z,38.42
2022-07-29T13:11:49.350Z,39.00
2022-07-29T13:14:40.145Z,37.87
2022-07-29T13:17:09.819Z,38.54
2022-07-29T13:20:13.439Z,37.67
2022-07-29T13:22:42.229Z,38.09
2022-07-29T13:25:10.664Z,38.51
2022-07-29T13:27:39.413Z,37.83
2022-07-29T13:30:09.410Z,38.31
2022-07-29T13:32:37.313Z,37.77
2022-07-29T13:35:07.287Z,37.09
2022-07-29T13:37:36.067Z,37.13
2022-07-29T13:40:04.403Z,37.02
2022-07-29T13:42:32.646Z,37.26
2022-07-29T13:44:59.862Z,36.59
2022-07-29T13:47:32.541Z,37.44
2022-07-29T13:50:03.124Z,37.42
2022-07-29T13:52:29.983Z,37.23
2022-07-29T13:54:57.338Z,37.10
2022-07-29T13:57:24.291Z,36.90
2022-07-29T13:59:54.451Z,36.43
2022-07-29T14:02:21.581Z,36.78
2022-07-29T14:04:53.451Z,36.43
2022-07-29T14:07:20.078Z,36.49
2022-07-29T14:09:46.822Z,36.30
2022-07-29T14:12:13.915Z,35.79
2022-07-29T14:14:40.746Z,35.52
2022-07-29T14:17:07.825Z,35.18
2022-07-29T14:19:36.843Z,35.49
2022-07-29T14:22:05.302Z,35.39
2022-07-29T14:24:32.328Z,35.38
2022-07-29T14:26:59.418Z,35.62
2022-07-29T14:29:35.281Z,35.37
2022-07-29T14:32:08.918Z,35.54
2022-07-29T14:34:39.310Z,35.90
2022-07-29T14:37:07.071Z,35.98
2022-07-29T14:39:38.126Z,35.99
2022-07-29T14:42:09.808Z,36.32
2022-07-29T14:44:39.209Z,36.19
2022-07-29T14:47:08.065Z,35.94
2022-07-29T14:49:35.822Z,35.76
2022-07-29T14:52:03.075Z,35.48
2022-07-29T14:54:29.922Z,35.56
2022-07-29T14:56:58.427Z,35.16
2022-07-29T14:59:26.263Z,34.63
2022-07-29T15:01:53.237Z,34.55
2022-07-29T15:04:20.138Z,34.43
2022-07-29T15:06:46.987Z,34.38
2022-07-29T15:09:13.757Z,34.19
2022-07-29T15:11:40.386Z,34.31
2022-07-29T15:14:07.635Z,34.24
2022-07-29T15:16:37.132Z,34.54
2022-07-29T15:19:04.713Z,34.59
2022-07-29T15:21:31.472Z,34.89
2022-07-29T15:23:58.209Z,34.69
2022-07-29T15:26:25.081Z,34.55
2022-07-29T15:28:52.146Z,34.32
2022-07-29T15:31:19.907Z,34.65
2022-07-29T15:33:46.800Z,34.42
2022-07-29T15:36:35.688Z,34.55
2022-07-29T15:39:00.783Z,34.64
2022-07-29T15:41:27.687Z,34.65
2022-07-29T15:43:54.379Z,34.95
2022-07-29T15:46:40.536Z,35.02
2022-07-29T15:49:08.495Z,34.97
2022-07-29T15:51:35.709Z,34.78
2022-07-29T15:54:04.305Z,34.99
2022-07-29T15:56:31.761Z,35.11
2022-07-29T15:58:58.688Z,34.90
2022-07-29T16:01:25.692Z,35.32
2022-07-29T16:03:52.972Z,35.22
2022-07-29T16:06:20.025Z,34.91
2022-07-29T16:08:46.976Z,35.17
2022-07-29T16:11:13.650Z,34.84
2022-07-29T16:13:40.524Z,35.06
2022-07-29T16:16:07.531Z,35.30
2022-07-29T16:18:34.769Z,35.29
2022-07-29T16:21:01.576Z,35.32
2022-07-29T16:23:28.493Z,35.58
2022-07-29T16:26:00.531Z,35.34
2022-07-29T16:28:28.883Z,35.60
2022-07-29T16:30:55.730Z,35.42
2022-07-29T16:33:22.360Z,35.46
2022-07-29T16:35:49.595Z,35.85
2022-07-29T16:38:16.538Z,35.47
2022-07-29T16:40:43.382Z,35.75
2022-07-29T16:43:10.054Z,35.86
2022-07-29T16:45:45.562Z,35.71
2022-07-29T16:48:14.012Z,35.55
2022-07-29T16:50:43.395Z,35.55
2022-07-29T16:53:10.886Z,35.45
2022-07-29T16:55:38.209Z,35.23
2022-07-29T16:58:05.510Z,35.30
2022-07-29T17:00:32.270Z,35.10
2022-07-29T17:03:00.067Z,35.21
2022-07-29T17:05:29.899Z,35.11
2022-07-29T17:08:16.772Z,34.90
2022-07-29T17:10:43.691Z,34.98
2022-07-29T17:13:10.448Z,35.40
2022-07-29T17:15:37.239Z,35.46
2022-07-29T17:18:12.502Z,35.50
2022-07-29T17:20:41.487Z,35.34
2022-07-29T17:23:08.377Z,35.51
2022-07-29T17:25:35.211Z,35.28
2022-07-29T17:28:02.004Z,35.69
2022-07-29T17:30:29.989Z,35.50
2022-07-29T17:32:56.946Z,35.69
2022-07-29T17:35:42.896Z,35.60
2022-07-29T17:38:09.881Z,35.72
2022-07-29T17:40:37.242Z,35.54
2022-07-29T17:43:04.884Z,35.41
2022-07-29T17:45:49.914Z,35.48
2022-07-29T17:48:18.240Z,35.56
2022-07-29T17:50:45.614Z,35.40
2022-07-29T17:53:15.838Z,35.72
2022-07-29T17:55:45.848Z,35.28
2022-07-29T17:58:12.561Z,35.10
2022-07-29T18:00:39.470Z,35.41
2022-07-29T18:03:07.724Z,35.37
2022-07-29T18:05:35.118Z,35.21
2022-07-29T18:08:02.019Z,34.95
2022-07-29T18:10:29.168Z,35.40
2022-07-29T18:12:55.737Z,35.43
2022-07-29T18:15:22.949Z,35.21
2022-07-29T18:17:57.519Z,35.39
2022-07-29T18:20:26.164Z,35.37
2022-07-29T18:22:53.144Z,35.71
2022-07-29T18:25:19.890Z,35.43
2022-07-29T18:27:46.483Z,35.41
2022-07-29T18:30:15.321Z,35.38
2022-07-29T18:32:50.548Z,35.30
2022-07-29T18:35:26.488Z,35.50
2022-07-29T18:38:01.842Z,35.44
2022-07-29T18:40:29.733Z,35.55
2022-07-29T18:42:56.645Z,36.13
2022-07-29T18:45:23.318Z,35.80
2022-07-29T18:47:56.090Z,36.15
2022-07-29T18:50:28.815Z,35.70
2022-07-29T18:52:58.785Z,36.02
2022-07-29T18:55:26.526Z,36.20
2022-07-29T18:57:56.417Z,36.13
2022-07-29T19:00:24.616Z,35.89
2022-07-29T19:02:52.582Z,36.34
2022-07-29T19:05:19.442Z,36.38
2022-07-29T19:07:46.190Z,36.53
2022-07-29T19:10:13.595Z,37.47
2022-07-29T19:15:08.284Z,38.23
2022-07-29T19:17:35.148Z,39.01
2022-07-29T19:20:02.563Z,39.14
2022-07-29T19:22:29.317Z,39.99
2022-07-29T19:24:56.012Z,40.13
2022-07-29T19:27:22.753Z,40.41
2022-07-29T19:29:49.588Z,41.04
2022-07-29T19:32:24.960Z,41.36
2022-07-29T19:35:11.570Z,41.41
2022-07-29T19:37:38.278Z,41.72
2022-07-29T19:40:06.480Z,41.63
2022-07-29T19:42:33.162Z,42.91
2022-07-29T19:45:00.019Z,41.98
2022-07-29T19:47:26.808Z,42.61
2022-07-29T19:49:53.751Z,42.86
2022-07-29T19:52:20.497Z,42.71
2022-07-29T19:54:47.230Z,43.14
2022-07-29T19:57:14.076Z,43.02
2022-07-29T19:59:40.950Z,43.86
2022-07-29T20:02:10.865Z,43.99
2022-07-29T20:04:38.726Z,44.17
2022-07-29T20:07:06.656Z,43.76
2022-07-29T20:09:33.475Z,43.84
2022-07-29T20:12:00.154Z,44.57
2022-07-29T20:14:27.008Z,44.58
2022-07-29T20:16:54.540Z,44.56
2022-07-29T20:19:21.595Z,44.95
2022-07-29T20:21:48.436Z,45.26
2022-07-29T20:24:15.273Z,45.16
2022-07-29T20:26:42.165Z,45.31
2022-07-29T20:29:09.198Z,45.80
2022-07-29T20:31:36.250Z,45.66
2022-07-29T20:34:03.527Z,45.51
2022-07-29T20:36:30.517Z,45.53
2022-07-29T20:38:59.932Z,46.28
2022-07-29T20:41:27.159Z,46.02
2022-07-29T20:43:53.865Z,46.31
2022-07-29T20:46:21.302Z,46.22
2022-07-29T20:48:48.236Z,46.37
2022-07-29T20:51:14.998Z,46.57
2022-07-29T20:53:42.014Z,46.52
2022-07-29T20:56:08.842Z,46.85
2022-07-29T20:58:36.508Z,47.14
2022-07-29T21:01:04.173Z,46.89
2022-07-29T21:03:31.359Z,46.93
2022-07-29T21:05:58.956Z,47.28
2022-07-29T21:08:26.280Z,47.13
2022-07-29T21:10:53.790Z,47.42
2022-07-29T21:13:22.423Z,47.40
2022-07-29T21:15:50.690Z,47.44
2022-07-29T21:18:37.031Z,48.55
2022-07-29T21:21:04.999Z,47.74
2022-07-29T21:23:31.764Z,47.84
2022-07-29T21:25:59.002Z,47.99
2022-07-29T21:28:41.270Z,48.43
2022-07-29T21:31:11.245Z,48.49
2022-07-29T21:33:39.937Z,48.65
2022-07-29T21:36:35.528Z,48.79
2022-07-29T21:38:54.190Z,48.91
2022-07-29T21:41:21.904Z,49.05
2022-07-29T21:43:48.591Z,49.22
2022-07-29T21:46:17.086Z,49.34
2022-07-29T21:48:44.634Z,49.59
2022-07-29T21:51:11.595Z,49.70
2022-07-29T21:53:38.470Z,50.17
2022-07-29T21:56:09.431Z,50.29
2022-07-29T21:58:41.788Z,50.15
2022-07-29T22:01:08.533Z,50.24
2022-07-29T22:03:35.170Z,50.64
2022-07-29T22:06:02.031Z,50.73
2022-07-29T22:08:28.707Z,50.94
2022-07-29T22:10:55.478Z,50.99
2022-07-29T22:13:22.240Z,50.91
2022-07-29T22:15:48.951Z,51.18
2022-07-29T22:18:21.137Z,51.23
2022-07-29T22:20:49.754Z,51.33
2022-07-29T22:23:16.582Z,51.39
2022-07-29T22:25:43.279Z,51.88
2022-07-29T22:28:10.163Z,51.87
2022-07-29T22:30:36.916Z,51.93
2022-07-29T22:33:03.720Z,52.13
2022-07-29T22:35:30.577Z,52.19
2022-07-29T22:37:57.229Z,52.09
2022-07-29T22:40:23.981Z,52.38
2022-07-29T22:42:57.633Z,52.33
2022-07-29T22:45:24.549Z,52.68
2022-07-29T22:47:55.934Z,52.67
2022-07-29T22:50:25.018Z,53.03
2022-07-29T22:52:51.983Z,52.93
2022-07-29T22:55:18.708Z,53.32
2022-07-29T22:57:45.586Z,53.11
2022-07-29T23:00:13.564Z,53.71
2022-07-29T23:02:41.437Z,53.53
2022-07-29T23:05:09.154Z,53.69
2022-07-29T23:07:36.183Z,54.02
2022-07-29T23:10:04.156Z,53.91
2022-07-29T23:12:30.888Z,54.07
2022-07-29T23:14:57.625Z,54.42
2022-07-29T23:17:24.368Z,54.45
2022-07-29T23:19:51.422Z,54.49
2022-07-29T23:22:18.521Z,54.73
2022-07-29T23:24:45.408Z,55.10
2022-07-29T23:27:12.295Z,55.09
2022-07-29T23:29:38.985Z,55.14
2022-07-29T23:32:05.964Z,55.33
2022-07-29T23:34:32.670Z,55.35
2022-07-29T23:36:59.627Z,55.55
2022-07-29T23:39:26.460Z,55.26
2022-07-29T23:41:53.390Z,56.14
2022-07-29T23:44:20.240Z,55.74
2022-07-29T23:46:46.970Z,55.79
2022-07-29T23:49:14.703Z,56.31
2022-07-29T23:51:41.388Z,56.28
2022-07-29T23:54:08.053Z,55.94
2022-07-29T23:56:34.898Z,56.42
2022-07-29T23:59:01.732Z,56.08
